Time;durP1;ratioP1;P1;durP2;ratioP2;P2;SDS_P1;SDS_P2;PMS_P1;PMS_P2;Temp;Humidity;BMP_temperature;BMP_pressure;BME280_temperature;BME280_humidity;BME280_pressure;Samples;Min_cycle;Max_cycle;Signal;HPM_P1;HPM_P2
2024/04/02 00:01:48;;;;;;;4.57;3.30;;;11.10;1.00;;;;;;5102602;27;20643;-75
2024/04/02 00:04:15;;;;;;;3.97;3.67;;;11.10;1.00;;;;;;5113352;27;20600;-75
2024/04/02 00:06:43;;;;;;;4.40;3.67;;;11.10;1.00;;;;;;5104941;27;20978;-75
2024/04/02 00:09:09;;;;;;;3.60;3.30;;;11.10;1.00;;;;;;5099963;27;20542;-73
2024/04/02 00:11:35;;;;;;;3.67;3.27;;;11.10;1.00;;;;;;5098302;27;20478;-74
2024/04/02 00:14:03;;;;;;;6.30;3.70;;;11.10;1.00;;;;;;5082057;28;20549;-74
2024/04/02 00:16:30;;;;;;;3.10;2.90;;;11.10;1.00;;;;;;5080526;28;20455;-74
2024/04/02 00:18:56;;;;;;;3.40;3.00;;;11.10;1.00;;;;;;5081415;27;20542;-73
2024/04/02 00:21:23;;;;;;;2.63;2.43;;;11.10;1.00;;;;;;5077463;28;20521;-74
2024/04/02 00:23:49;;;;;;;3.40;1.93;;;11.10;1.00;;;;;;5080105;28;20475;-73
2024/04/02 00:26:16;;;;;;;4.20;2.20;;;11.00;1.00;;;;;;5080048;27;20459;-75
2024/04/02 00:28:42;;;;;;;2.43;2.20;;;11.00;1.00;;;;;;5080427;27;20454;-74
2024/04/02 00:31:15;;;;;;;1.97;1.83;;;11.10;1.00;;;;;;5079181;28;20521;-74
2024/04/02 00:33:41;;;;;;;2.67;2.10;;;11.10;1.00;;;;;;5080102;28;20565;-74
2024/04/02 00:36:08;;;;;;;2.20;1.80;;;11.20;1.00;;;;;;5078932;27;20450;-74
2024/04/02 00:38:34;;;;;;;2.40;1.60;;;11.20;1.00;;;;;;5080675;27;20447;-74
2024/04/02 00:41:01;;;;;;;2.20;2.00;;;11.30;1.00;;;;;;5082767;27;20459;-74
2024/04/02 00:43:28;;;;;;;3.57;1.70;;;11.30;1.00;;;;;;5077668;28;20470;-74
2024/04/02 00:45:56;;;;;;;2.60;2.03;;;11.30;1.00;;;;;;5078839;27;20590;-75
2024/04/02 00:48:24;;;;;;;2.83;2.10;;;11.40;1.00;;;;;;5081666;28;20489;-75
2024/04/02 00:50:52;;;;;;;2.07;1.97;;;11.40;1.00;;;;;;5077689;27;20968;-75
2024/04/02 00:53:20;;;;;;;2.13;1.50;;;11.50;1.00;;;;;;5074913;28;20479;-75
2024/04/02 00:55:47;;;;;;;3.50;2.00;;;11.50;1.00;;;;;;5077623;27;21633;-75
2024/04/02 00:58:14;;;;;;;2.10;1.90;;;11.50;1.00;;;;;;5081964;28;21209;-71
2024/04/02 01:00:41;;;;;;;2.40;2.20;;;11.60;1.00;;;;;;5082053;27;20447;-71
2024/04/02 01:03:07;;;;;;;3.47;2.90;;;11.60;1.00;;;;;;5081967;28;20475;-73
2024/04/02 01:05:38;;;;;;;2.87;2.63;;;11.60;1.00;;;;;;5097079;27;20461;-71
2024/04/02 01:08:05;;;;;;;4.70;3.40;;;11.60;1.00;;;;;;5098080;27;20545;-73
2024/04/02 01:10:33;;;;;;;3.20;2.87;;;11.60;1.00;;;;;;5101698;27;20454;-74
2024/04/02 01:12:59;;;;;;;3.00;2.80;;;11.70;1.00;;;;;;5104487;27;21115;-72
2024/04/02 01:15:26;;;;;;;3.73;2.73;;;11.60;1.00;;;;;;5102979;27;20596;-71
2024/04/02 01:17:52;;;;;;;3.50;3.20;;;11.60;1.00;;;;;;5090968;27;20990;-73
2024/04/02 01:20:19;;;;;;;4.40;3.50;;;11.60;1.00;;;;;;5082783;28;20465;-70
2024/04/02 01:22:46;;;;;;;3.63;3.33;;;11.50;1.00;;;;;;5080137;28;20482;-71
2024/04/02 01:25:13;;;;;;;3.23;2.93;;;11.50;1.00;;;;;;5087801;27;20490;-73
2024/04/02 01:27:40;;;;;;;4.23;3.83;;;11.50;1.00;;;;;;5081892;27;20512;-71
2024/04/02 01:30:08;;;;;;;3.07;2.83;;;11.40;1.00;;;;;;5089283;27;20454;-69
2024/04/02 01:32:34;;;;;;;3.70;3.40;;;11.40;1.00;;;;;;5080087;27;20577;-71
2024/04/02 01:35:01;;;;;;;3.70;3.20;;;11.40;1.00;;;;;;5083496;27;20442;-72
2024/04/02 01:37:28;;;;;;;3.50;2.90;;;11.30;1.00;;;;;;5101191;27;21134;-71
2024/04/02 01:39:55;;;;;;;2.90;2.70;;;11.30;1.00;;;;;;5102699;27;20532;-72
2024/04/02 01:42:22;;;;;;;3.10;2.90;;;11.40;1.00;;;;;;5100054;27;20549;-72
2024/04/02 01:44:51;;;;;;;3.43;3.00;;;11.30;1.00;;;;;;5104020;27;21054;-73
2024/04/02 01:47:17;;;;;;;3.20;2.90;;;11.30;1.00;;;;;;5101658;27;20528;-71
2024/04/02 01:49:44;;;;;;;3.53;2.70;;;11.30;1.00;;;;;;5100122;27;20464;-71
2024/04/02 01:52:09;;;;;;;2.40;2.30;;;11.30;1.00;;;;;;5101839;27;20462;-73
2024/04/02 01:54:36;;;;;;;3.00;2.80;;;11.30;1.00;;;;;;5101202;27;20486;-70
2024/04/02 01:57:03;;;;;;;3.70;2.83;;;11.30;1.00;;;;;;5100955;27;20457;-71
2024/04/02 01:59:30;;;;;;;2.77;2.40;;;11.30;1.00;;;;;;5103004;27;20462;-71
2024/04/02 02:01:57;;;;;;;3.20;2.90;;;11.20;1.00;;;;;;5100805;27;20462;-70
2024/04/02 02:04:24;;;;;;;2.43;2.20;;;11.10;1.00;;;;;;5097460;27;20461;-70
2024/04/02 02:06:49;;;;;;;2.70;2.50;;;11.00;1.00;;;;;;5104947;27;20989;-70
2024/04/02 02:09:16;;;;;;;4.40;2.53;;;11.00;1.00;;;;;;5104279;27;20541;-70
2024/04/02 02:11:42;;;;;;;3.67;3.30;;;11.00;1.00;;;;;;5101553;27;20569;-70
2024/04/02 02:14:09;;;;;;;2.93;2.73;;;11.00;1.00;;;;;;5105051;27;20450;-70
2024/04/02 02:16:35;;;;;;;3.43;2.13;;;10.80;1.00;;;;;;5101224;27;21526;-71
2024/04/02 02:19:04;;;;;;;2.63;2.40;;;10.70;1.00;;;;;;5102691;27;20442;-70
2024/04/02 02:21:29;;;;;;;2.27;2.07;;;10.70;1.00;;;;;;5088044;27;20313;-70
2024/04/02 02:23:56;;;;;;;3.50;2.80;;;10.60;1.00;;;;;;5077986;28;20518;-71
2024/04/02 02:26:22;;;;;;;3.00;2.40;;;10.60;1.00;;;;;;5082540;27;20570;-70
2024/04/02 02:28:49;;;;;;;3.47;2.73;;;10.50;1.00;;;;;;5082352;27;20994;-74
2024/04/02 02:31:15;;;;;;;2.40;2.20;;;10.50;1.00;;;;;;5100631;27;20506;-71
2024/04/02 02:33:42;;;;;;;2.27;2.17;;;10.40;1.00;;;;;;5077890;28;20528;-71
2024/04/02 02:36:10;;;;;;;3.10;2.80;;;10.40;1.00;;;;;;5082841;27;20463;-70
2024/04/02 02:38:37;;;;;;;2.60;2.40;;;10.30;1.00;;;;;;5078723;27;20877;-72
2024/04/02 02:41:03;;;;;;;2.53;2.33;;;10.30;1.00;;;;;;5091689;27;20558;-74
2024/04/02 02:43:30;;;;;;;2.23;1.97;;;10.20;1.00;;;;;;5084566;28;20451;-70
2024/04/02 02:45:56;;;;;;;2.33;2.20;;;10.20;1.00;;;;;;5083714;28;20879;-73
2024/04/02 02:48:23;;;;;;;2.70;2.23;;;10.10;1.00;;;;;;5088168;27;20451;-74
2024/04/02 02:50:49;;;;;;;1.97;1.73;;;10.10;1.00;;;;;;5091677;27;21008;-72
2024/04/02 02:53:20;;;;;;;4.63;2.27;;;10.10;1.00;;;;;;5090671;27;20531;-70
2024/04/02 02:55:53;;;;;;;2.13;1.87;;;10.10;1.00;;;;;;5083623;27;21339;-71
2024/04/02 02:58:21;;;;;;;2.20;2.10;;;10.00;1.00;;;;;;5102762;27;20973;-71
2024/04/02 03:00:47;;;;;;;1.90;1.70;;;10.00;1.00;;;;;;5106322;27;21072;-71
2024/04/02 03:03:14;;;;;;;2.40;2.20;;;10.00;1.00;;;;;;5103397;27;20461;-72
2024/04/02 03:05:40;;;;;;;2.20;2.00;;;10.00;1.00;;;;;;5105410;27;22372;-70
2024/04/02 03:08:07;;;;;;;3.00;1.87;;;10.00;1.00;;;;;;5103459;27;20544;-73
2024/04/02 03:10:35;;;;;;;3.10;2.00;;;9.90;1.00;;;;;;5101557;27;20466;-71
2024/04/02 03:13:02;;;;;;;4.10;2.10;;;9.90;1.00;;;;;;5100095;27;20445;-73
2024/04/02 03:15:28;;;;;;;3.13;2.27;;;9.90;1.00;;;;;;5106561;27;20976;-70
2024/04/02 03:17:55;;;;;;;7.03;2.23;;;9.90;1.00;;;;;;5105606;27;20486;-73
2024/04/02 03:20:21;;;;;;;2.23;2.03;;;9.90;1.00;;;;;;5103342;27;20454;-73
2024/04/02 03:22:47;;;;;;;2.57;2.27;;;9.90;1.00;;;;;;5103981;27;20474;-74
2024/04/02 03:25:13;;;;;;;2.50;2.03;;;9.90;1.00;;;;;;5105681;27;20493;-75
2024/04/02 03:27:42;;;;;;;2.10;1.73;;;9.90;1.00;;;;;;5107472;27;20896;-73
2024/04/02 03:30:09;;;;;;;2.30;2.10;;;9.90;1.00;;;;;;5103713;27;20532;-75
2024/04/02 03:32:37;;;;;;;2.30;2.10;;;10.00;1.00;;;;;;5097608;27;20451;-73
2024/04/02 03:35:03;;;;;;;2.67;2.00;;;10.00;1.00;;;;;;5083817;28;20474;-74
2024/04/02 03:37:31;;;;;;;3.60;2.90;;;10.00;1.00;;;;;;5084256;27;20462;-73
2024/04/02 03:39:57;;;;;;;4.27;3.40;;;9.90;1.00;;;;;;5084869;27;20905;-75
2024/04/02 03:42:23;;;;;;;2.40;2.20;;;9.90;1.00;;;;;;5088832;27;20466;-74
2024/04/02 03:44:51;;;;;;;5.50;2.73;;;9.80;1.00;;;;;;5083143;28;20658;-74
2024/04/02 03:47:18;;;;;;;2.43;2.23;;;9.80;1.00;;;;;;5082725;27;20458;-74
2024/04/02 03:49:45;;;;;;;4.30;2.70;;;9.80;1.00;;;;;;5086729;27;20494;-74
2024/04/02 03:52:12;;;;;;;2.70;2.50;;;9.80;1.00;;;;;;5082482;28;22404;-74
2024/04/02 03:54:38;;;;;;;2.77;2.57;;;9.90;1.00;;;;;;5088757;27;20996;-75
2024/04/02 03:57:05;;;;;;;4.37;2.77;;;9.80;1.00;;;;;;5079935;27;20467;-74
2024/04/02 03:59:34;;;;;;;2.90;2.40;;;9.90;1.00;;;;;;5091837;27;20489;-75
2024/04/02 04:02:02;;;;;;;3.27;2.40;;;10.00;1.00;;;;;;5075171;27;20562;-75
2024/04/02 04:04:28;;;;;;;2.73;2.53;;;10.00;1.00;;;;;;5077321;28;20586;-75
2024/04/02 04:06:55;;;;;;;3.07;2.43;;;10.10;1.00;;;;;;5099629;27;20481;-74
2024/04/02 04:09:23;;;;;;;2.63;2.10;;;10.20;1.00;;;;;;5104002;27;20469;-75
2024/04/02 04:11:51;;;;;;;2.63;2.27;;;10.20;1.00;;;;;;5102456;27;20481;-74
2024/04/02 04:14:17;;;;;;;5.67;2.30;;;10.20;1.00;;;;;;5105557;27;20462;-73
2024/04/02 04:16:45;;;;;;;2.90;2.60;;;10.20;1.00;;;;;;5105809;27;20465;-75
2024/04/02 04:19:12;;;;;;;3.80;2.87;;;10.20;1.00;;;;;;5107057;27;20520;-77
2024/04/02 04:21:39;;;;;;;2.60;2.40;;;10.20;1.00;;;;;;5108553;27;21206;-73
2024/04/02 04:24:06;;;;;;;2.80;2.60;;;10.10;1.00;;;;;;5111391;27;20538;-74
2024/04/02 04:26:33;;;;;;;5.07;2.83;;;10.20;1.00;;;;;;5108706;27;20459;-74
2024/04/02 04:28:59;;;;;;;8.33;3.87;;;10.10;1.00;;;;;;5108562;27;20468;-73
2024/04/02 04:31:27;;;;;;;3.97;3.07;;;10.10;1.00;;;;;;5104316;27;20464;-72
2024/04/02 04:33:53;;;;;;;4.40;3.63;;;10.10;1.00;;;;;;5103104;27;20534;-74
2024/04/02 04:36:21;;;;;;;3.40;3.10;;;10.10;1.00;;;;;;5106050;27;20537;-73
2024/04/02 04:38:47;;;;;;;5.67;3.30;;;10.10;1.00;;;;;;5106183;27;20512;-74
2024/04/02 04:41:14;;;;;;;4.00;3.60;;;10.10;1.00;;;;;;5105648;27;20986;-73
2024/04/02 04:43:40;;;;;;;5.53;5.03;;;10.00;1.00;;;;;;5103757;27;20493;-74
2024/04/02 04:46:07;;;;;;;3.67;3.37;;;10.00;1.00;;;;;;5105525;27;20596;-74
2024/04/02 04:48:33;;;;;;;9.13;4.53;;;10.10;1.00;;;;;;5103820;27;20486;-74
2024/04/02 04:51:01;;;;;;;4.03;3.60;;;10.10;1.00;;;;;;5105290;27;20933;-74
2024/04/02 04:53:30;;;;;;;3.90;3.50;;;10.10;1.00;;;;;;5104905;27;20524;-75
2024/04/02 04:56:00;;;;;;;3.83;3.43;;;10.20;1.00;;;;;;5108695;27;20488;-73
2024/04/02 04:58:26;;;;;;;3.57;3.10;;;10.30;1.00;;;;;;5104455;27;20538;-75
2024/04/02 05:00:53;;;;;;;5.20;4.70;;;10.40;1.00;;;;;;5103172;27;20466;-72
2024/04/02 05:03:20;;;;;;;4.03;3.40;;;10.50;1.00;;;;;;5105455;27;20482;-74
2024/04/02 05:05:47;;;;;;;3.60;3.30;;;10.40;1.00;;;;;;5105503;27;20473;-74
2024/04/02 05:08:22;;;;;;;4.87;4.00;;;10.50;1.00;;;;;;5104743;27;20461;-73
2024/04/02 05:10:51;;;;;;;5.77;4.00;;;10.50;1.00;;;;;;5106522;27;20481;-74
2024/04/02 05:13:21;;;;;;;4.90;4.50;;;10.60;1.00;;;;;;5103949;27;20453;-74
2024/04/02 05:15:47;;;;;;;4.10;3.70;;;10.60;1.00;;;;;;5105668;27;21393;-73
2024/04/02 05:18:13;;;;;;;10.27;4.57;;;10.80;1.00;;;;;;5108284;27;20438;-73
2024/04/02 05:20:40;;;;;;;4.50;4.10;;;10.70;1.00;;;;;;5099730;27;20464;-73
2024/04/02 05:23:09;;;;;;;5.70;4.60;;;10.70;1.00;;;;;;5105313;27;20470;-75
2024/04/02 05:25:36;;;;;;;4.80;4.40;;;10.70;1.00;;;;;;5084975;28;20470;-75
2024/04/02 05:28:06;;;;;;;4.87;4.43;;;10.60;1.00;;;;;;5087090;27;20450;-76
2024/04/02 05:30:36;;;;;;;8.30;4.30;;;10.60;1.00;;;;;;5090729;27;20465;-75
2024/04/02 05:33:03;;;;;;;5.90;4.80;;;10.60;1.00;;;;;;5082229;28;20463;-75
2024/04/02 05:35:31;;;;;;;4.10;3.80;;;10.60;1.00;;;;;;5083926;28;20463;-73
2024/04/02 05:37:57;;;;;;;6.83;5.00;;;10.60;1.00;;;;;;5079811;28;20568;-73
2024/04/02 05:40:25;;;;;;;5.63;5.10;;;10.60;1.00;;;;;;5084767;28;20947;-75
2024/04/02 05:42:51;;;;;;;5.27;4.87;;;10.60;1.00;;;;;;5097151;27;20473;-75
2024/04/02 05:45:20;;;;;;;5.27;4.13;;;10.60;1.00;;;;;;5100966;27;20462;-74
2024/04/02 05:47:47;;;;;;;5.00;4.60;;;10.60;1.00;;;;;;5087972;28;20474;-73
2024/04/02 05:50:15;;;;;;;5.40;4.90;;;10.60;1.00;;;;;;5094458;27;20439;-75
2024/04/02 05:52:41;;;;;;;5.60;4.90;;;10.60;1.00;;;;;;5109513;27;20476;-75
2024/04/02 05:55:09;;;;;;;4.20;3.90;;;10.70;1.00;;;;;;5106263;27;20464;-76
2024/04/02 05:57:35;;;;;;;5.70;5.13;;;10.70;1.00;;;;;;5105757;27;20558;-76
2024/04/02 06:00:28;;;;;;;5.40;4.70;;;10.80;1.00;;;;;;5103958;27;20457;-75
2024/04/02 06:02:56;;;;;;;6.70;5.30;;;10.90;1.00;;;;;;5092970;27;22028;-76
2024/04/02 06:05:24;;;;;;;5.20;4.70;;;11.00;1.00;;;;;;5100026;27;20451;-78
2024/04/02 06:07:54;;;;;;;5.33;4.87;;;11.10;1.00;;;;;;5082269;27;20695;-73
2024/04/02 06:10:22;;;;;;;8.33;5.10;;;11.10;1.00;;;;;;5087786;27;20447;-76
2024/04/02 06:12:48;;;;;;;7.67;5.63;;;11.20;1.00;;;;;;5083637;27;20458;-75
2024/04/02 06:15:15;;;;;;;5.43;4.93;;;11.20;1.00;;;;;;5088130;27;21915;-74
2024/04/02 06:17:40;;;;;;;4.93;4.60;;;11.20;1.00;;;;;;5087487;28;20506;-74
2024/04/02 06:20:12;;;;;;;5.10;4.60;;;11.30;1.00;;;;;;5089261;28;20558;-74
2024/04/02 06:22:38;;;;;;;5.27;4.77;;;11.20;1.00;;;;;;5088194;27;20921;-74
2024/04/02 06:25:05;;;;;;;5.73;4.97;;;11.30;1.00;;;;;;5103919;27;20458;-74
2024/04/02 06:27:32;;;;;;;4.30;3.90;;;11.40;1.00;;;;;;5103471;27;20605;-72
2024/04/02 06:29:59;;;;;;;5.40;4.90;;;11.40;1.00;;;;;;5101870;27;20458;-74
2024/04/02 06:32:25;;;;;;;8.30;5.63;;;11.40;1.00;;;;;;5101051;27;20507;-75
2024/04/02 06:34:52;;;;;;;8.17;5.43;;;11.50;1.00;;;;;;5106991;27;20566;-74
2024/04/02 06:37:21;;;;;;;7.47;5.67;;;11.50;1.00;;;;;;5105735;27;20519;-74
2024/04/02 06:39:48;;;;;;;5.47;4.97;;;11.60;1.00;;;;;;5105307;27;20483;-73
2024/04/02 06:42:14;;;;;;;5.20;4.80;;;11.60;1.00;;;;;;5108161;27;20485;-74
2024/04/02 06:44:41;;;;;;;6.50;4.77;;;11.70;1.00;;;;;;5104450;27;21133;-72
2024/04/02 06:47:07;;;;;;;5.83;4.97;;;11.80;1.00;;;;;;5084237;27;20503;-74
2024/04/02 06:49:34;;;;;;;6.30;4.70;;;11.70;1.00;;;;;;5083106;28;20542;-74
2024/04/02 06:52:00;;;;;;;6.03;5.07;;;11.80;1.00;;;;;;5106137;27;20531;-74
2024/04/02 06:54:30;;;;;;;5.40;4.50;;;11.90;1.00;;;;;;5105627;27;20535;-75
2024/04/02 06:56:57;;;;;;;5.90;5.30;;;12.00;1.00;;;;;;5105224;27;20473;-75
2024/04/02 06:59:24;;;;;;;4.87;4.47;;;12.10;1.00;;;;;;5103390;27;20442;-74
2024/04/02 07:01:50;;;;;;;5.73;5.10;;;12.20;1.00;;;;;;5100455;27;20505;-73
2024/04/02 07:04:17;;;;;;;4.63;4.23;;;12.20;1.00;;;;;;5102815;27;20485;-77
2024/04/02 07:06:43;;;;;;;9.23;5.27;;;12.30;1.00;;;;;;5101503;27;20497;-74
2024/04/02 07:09:10;;;;;;;4.73;4.10;;;12.30;1.00;;;;;;5103362;27;20524;-73
2024/04/02 07:11:38;;;;;;;6.43;4.20;;;12.20;1.00;;;;;;5101394;27;20454;-74
2024/04/02 07:14:05;;;;;;;5.70;4.17;;;12.20;1.00;;;;;;5108196;27;20426;-75
2024/04/02 07:16:33;;;;;;;4.37;3.53;;;12.20;1.00;;;;;;5106763;27;21667;-75
2024/04/02 07:19:02;;;;;;;6.63;4.17;;;12.40;1.00;;;;;;5101761;27;20450;-75
2024/04/02 07:21:28;;;;;;;4.47;4.03;;;12.40;1.00;;;;;;5112606;27;20545;-75
2024/04/02 07:23:56;;;;;;;3.83;3.53;;;12.60;1.00;;;;;;5109639;27;20451;-74
2024/04/02 07:26:22;;;;;;;3.73;3.43;;;12.70;1.00;;;;;;5111453;27;20467;-74
2024/04/02 07:28:51;;;;;;;4.90;3.03;;;12.80;1.00;;;;;;5107336;27;20777;-73
2024/04/02 07:31:16;;;;;;;6.87;3.77;;;12.90;1.00;;;;;;5085108;27;20566;-75
2024/04/02 07:33:44;;;;;;;8.10;3.50;;;13.00;1.00;;;;;;5086102;27;21037;-74
2024/04/02 07:36:09;;;;;;;4.03;3.40;;;13.00;1.00;;;;;;5105767;27;20551;-74
2024/04/02 07:38:36;;;;;;;7.53;3.20;;;13.10;1.00;;;;;;5096031;27;20461;-75
2024/04/02 07:41:03;;;;;;;4.70;4.20;;;13.20;1.00;;;;;;5086388;27;20478;-73
2024/04/02 07:43:33;;;;;;;9.13;3.40;;;13.30;1.00;;;;;;5105993;27;20451;-74
2024/04/02 07:46:00;;;;;;;7.23;3.60;;;13.50;1.00;;;;;;5108391;27;20547;-74
2024/04/02 07:48:27;;;;;;;5.70;3.10;;;13.70;1.00;;;;;;5106529;27;20459;-74
2024/04/02 07:50:58;;;;;;;7.70;3.40;;;13.80;1.00;;;;;;5109708;27;20501;-74
2024/04/02 07:53:25;;;;;;;8.00;3.93;;;14.10;1.00;;;;;;5106194;27;20459;-76
2024/04/02 07:55:51;;;;;;;3.67;3.37;;;14.20;1.00;;;;;;5108984;27;20468;-74
2024/04/02 07:58:19;;;;;;;5.83;3.60;;;14.20;1.00;;;;;;5100765;27;21308;-75
2024/04/02 08:00:46;;;;;;;5.17;3.50;;;14.00;1.00;;;;;;5090156;28;20472;-75
2024/04/02 08:03:15;;;;;;;4.23;3.50;;;13.70;1.00;;;;;;5083187;28;20443;-75
2024/04/02 08:05:41;;;;;;;6.23;4.00;;;13.40;1.00;;;;;;5095585;27;21001;-75
2024/04/02 08:08:09;;;;;;;6.70;3.83;;;13.30;1.00;;;;;;5088800;27;20526;-78
2024/04/02 08:10:37;;;;;;;4.80;3.53;;;13.30;1.00;;;;;;5103589;27;20568;-74
2024/04/02 08:13:05;;;;;;;3.50;3.20;;;13.50;1.00;;;;;;5086623;27;20416;-73
2024/04/02 08:15:31;;;;;;;5.77;4.27;;;13.60;1.00;;;;;;5086262;27;20501;-75
2024/04/02 08:18:01;;;;;;;3.70;3.00;;;13.70;1.00;;;;;;5106342;27;20484;-76
2024/04/02 08:20:28;;;;;;;3.63;3.20;;;13.80;1.00;;;;;;5087746;28;20247;-75
2024/04/02 08:22:57;;;;;;;7.30;3.27;;;13.80;1.00;;;;;;5096318;27;20480;-75
2024/04/02 08:25:23;;;;;;;5.83;3.30;;;13.90;1.00;;;;;;5103234;27;20475;-75
2024/04/02 08:27:50;;;;;;;4.03;3.67;;;14.00;1.00;;;;;;5112334;27;20469;-76
2024/04/02 08:30:19;;;;;;;3.10;2.90;;;14.00;1.00;;;;;;5086861;28;20559;-75
2024/04/02 08:32:46;;;;;;;7.60;3.20;;;14.10;1.00;;;;;;5087553;28;20449;-74
2024/04/02 08:35:15;;;;;;;3.30;3.00;;;14.10;1.00;;;;;;5085438;28;20477;-75
2024/04/02 08:37:44;;;;;;;3.77;2.90;;;14.00;1.00;;;;;;5091696;27;20483;-75
2024/04/02 08:40:10;;;;;;;6.37;3.43;;;13.90;1.00;;;;;;5095866;27;20461;-76
2024/04/02 08:42:38;;;;;;;4.67;3.27;;;14.00;1.00;;;;;;5085739;28;20954;-74
2024/04/02 08:45:06;;;;;;;16.67;4.13;;;14.10;1.00;;;;;;5083773;27;21460;-74
2024/04/02 08:47:37;;;;;;;5.67;3.10;;;14.10;1.00;;;;;;5088571;28;20982;-73
2024/04/02 08:50:08;;;;;;;4.90;3.43;;;14.00;1.00;;;;;;5086139;27;20481;-74
2024/04/02 08:52:36;;;;;;;3.10;2.90;;;14.10;1.00;;;;;;5095888;27;20455;-75
2024/04/02 08:55:03;;;;;;;2.90;2.70;;;14.00;1.00;;;;;;5106095;27;20480;-75
2024/04/02 08:57:32;;;;;;;3.90;2.70;;;14.10;1.00;;;;;;5106149;27;20511;-76
2024/04/02 09:00:00;;;;;;;5.80;2.93;;;14.30;1.00;;;;;;5104351;27;21029;-77
2024/04/02 09:02:27;;;;;;;4.10;2.87;;;14.40;1.00;;;;;;5104193;27;20458;-75
2024/04/02 09:04:55;;;;;;;3.20;2.90;;;14.50;1.00;;;;;;5104316;27;20482;-76
2024/04/02 09:07:24;;;;;;;3.30;2.10;;;14.60;1.00;;;;;;5106134;27;20487;-76
2024/04/02 09:09:50;;;;;;;6.20;3.13;;;14.40;1.00;;;;;;5105106;27;20561;-75
2024/04/02 09:12:21;;;;;;;4.97;2.83;;;14.40;1.00;;;;;;5105634;27;20470;-72
2024/04/02 09:14:47;;;;;;;6.40;2.13;;;14.30;1.00;;;;;;5107010;27;20925;-72
2024/04/02 09:17:14;;;;;;;4.73;2.50;;;14.20;1.00;;;;;;5104247;27;20986;-73
2024/04/02 09:19:40;;;;;;;4.40;2.20;;;14.10;1.00;;;;;;5102054;27;20487;-74
2024/04/02 09:22:08;;;;;;;7.87;3.57;;;14.10;1.00;;;;;;5101307;27;20956;-73
2024/04/02 09:24:34;;;;;;;6.90;2.80;;;14.30;1.00;;;;;;5105265;27;20889;-73
2024/04/02 09:27:01;;;;;;;4.87;1.97;;;14.60;1.00;;;;;;5101103;27;20570;-73
2024/04/02 09:29:28;;;;;;;6.50;2.20;;;14.90;1.00;;;;;;5105758;27;21211;-73
2024/04/02 09:31:56;;;;;;;4.80;1.97;;;14.90;1.00;;;;;;5103834;27;20879;-77
2024/04/02 09:34:24;;;;;;;3.33;1.90;;;15.00;1.00;;;;;;5103859;27;20440;-72
2024/04/02 09:36:59;;;;;;;3.37;2.00;;;15.40;1.00;;;;;;5104475;27;20997;-73
2024/04/02 09:39:28;;;;;;;13.93;3.40;;;16.90;1.00;;;;;;5102556;27;20967;-74
2024/04/02 09:41:56;;;;;;;6.57;2.40;;;17.30;1.00;;;;;;5094735;27;20438;-75
2024/04/02 09:44:24;;;;;;;2.00;1.53;;;17.50;1.00;;;;;;5100408;27;20458;-73
2024/04/02 09:46:55;;;;;;;2.33;1.60;;;16.70;1.00;;;;;;5108030;27;20457;-74
2024/04/02 09:49:23;;;;;;;5.13;2.33;;;16.10;1.00;;;;;;5103626;27;21317;-75
2024/04/02 09:51:53;;;;;;;5.47;2.00;;;15.90;1.00;;;;;;5083480;27;20977;-74
2024/04/02 09:54:21;;;;;;;2.43;1.50;;;16.50;1.00;;;;;;5106769;27;20581;-73
2024/04/02 09:56:50;;;;;;;4.43;3.17;;;17.50;1.00;;;;;;5091731;27;20463;-73
2024/04/02 09:59:16;;;;;;;2.40;1.50;;;18.20;1.00;;;;;;5092590;27;20455;-74
2024/04/02 10:01:45;;;;;;;2.20;1.40;;;19.40;1.00;;;;;;5080584;28;20463;-75
2024/04/02 10:04:15;;;;;;;4.90;2.40;;;19.40;1.00;;;;;;5081680;28;20563;-74
2024/04/02 10:06:47;;;;;;;2.60;1.63;;;19.10;1.00;;;;;;5094453;27;20460;-73
2024/04/02 10:09:16;;;;;;;4.07;1.30;;;18.30;1.00;;;;;;5103431;27;20446;-72
2024/04/02 10:11:47;;;;;;;5.00;1.80;;;17.40;1.00;;;;;;5106401;27;20453;-73
2024/04/02 10:14:14;;;;;;;2.90;1.57;;;16.60;1.00;;;;;;5106257;27;20464;-73
2024/04/02 10:16:43;;;;;;;4.70;2.07;;;16.40;1.00;;;;;;5108159;27;20555;-74
2024/04/02 10:19:16;;;;;;;5.77;1.67;;;16.90;1.00;;;;;;5104798;27;20957;-74
2024/04/02 10:21:44;;;;;;;2.73;1.77;;;16.60;1.00;;;;;;5105695;27;20463;-73
2024/04/02 10:24:11;;;;;;;3.57;1.90;;;16.40;1.00;;;;;;5108355;27;22365;-73
2024/04/02 10:26:39;;;;;;;3.60;1.80;;;16.70;1.00;;;;;;5103875;27;20855;-72
2024/04/02 10:29:09;;;;;;;4.53;1.70;;;16.60;1.00;;;;;;5105180;27;20515;-73
2024/04/02 10:31:40;;;;;;;2.97;1.83;;;16.30;1.00;;;;;;5102424;27;21426;-76
2024/04/02 10:34:07;;;;;;;3.23;1.50;;;16.00;1.00;;;;;;5107610;27;20508;-77
2024/04/02 10:36:36;;;;;;;1.70;1.60;;;15.90;1.00;;;;;;5104482;27;20469;-77
2024/04/02 10:39:03;;;;;;;3.40;2.13;;;15.60;1.00;;;;;;5096527;27;20531;-77
2024/04/02 10:41:33;;;;;;;2.80;1.47;;;15.30;1.00;;;;;;5105532;27;20944;-76
2024/04/02 10:43:59;;;;;;;3.93;1.73;;;15.50;1.00;;;;;;5104072;27;21014;-77
2024/04/02 10:46:27;;;;;;;3.07;1.63;;;16.10;1.00;;;;;;5104013;27;20462;-75
2024/04/02 10:48:56;;;;;;;2.63;1.73;;;17.00;1.00;;;;;;5106105;27;20478;-77
2024/04/02 10:51:25;;;;;;;8.67;2.87;;;17.30;1.00;;;;;;5108150;27;20481;-77
2024/04/02 10:53:56;;;;;;;2.27;1.47;;;16.90;1.00;;;;;;5096457;27;20487;-77
2024/04/02 10:56:24;;;;;;;2.57;1.20;;;16.40;1.00;;;;;;5114397;27;20442;-75
2024/04/02 10:58:55;;;;;;;2.00;1.40;;;15.90;1.00;;;;;;5106156;27;20468;-77
2024/04/02 11:01:23;;;;;;;10.00;2.70;;;15.60;1.00;;;;;;5108583;27;20461;-77
2024/04/02 11:03:54;;;;;;;3.87;2.40;;;15.30;1.00;;;;;;5111285;27;20564;-76
2024/04/02 11:06:22;;;;;;;3.23;1.43;;;15.20;1.00;;;;;;5106722;27;23409;-75
2024/04/02 11:08:49;;;;;;;4.20;2.17;;;15.10;1.00;;;;;;5113629;27;22163;-73
2024/04/02 11:11:23;;;;;;;3.67;1.90;;;15.20;1.00;;;;;;5090722;28;20495;-73
2024/04/02 11:13:49;;;;;;;4.07;1.83;;;15.10;1.00;;;;;;5097989;27;20478;-78
2024/04/02 11:16:17;;;;;;;2.80;1.80;;;15.20;1.00;;;;;;5108426;27;20466;-76
2024/04/02 11:18:44;;;;;;;3.67;1.87;;;16.10;1.00;;;;;;5109435;27;20485;-74
2024/04/02 11:21:17;;;;;;;4.77;2.00;;;16.80;1.00;;;;;;5103610;27;20465;-75
2024/04/02 11:26:30;;;;;;;8.13;1.97;;;17.90;1.00;;;;;;5108139;27;20941;-73
2024/04/02 11:29:05;;;;;;;2.87;1.70;;;17.20;1.00;;;;;;5107063;27;21042;-72
2024/04/02 11:31:32;;;;;;;1.67;1.57;;;16.60;1.00;;;;;;5103731;27;20840;-71
2024/04/02 11:34:02;;;;;;;6.67;2.47;;;16.20;1.00;;;;;;5106473;27;20504;-71
2024/04/02 11:36:28;;;;;;;2.73;1.77;;;15.70;1.00;;;;;;5105019;27;20461;-72
2024/04/02 11:38:55;;;;;;;3.97;2.00;;;15.30;1.00;;;;;;5105083;27;20546;-72
2024/04/02 11:41:23;;;;;;;3.30;1.93;;;15.20;1.00;;;;;;5108346;27;20553;-70
2024/04/02 11:43:50;;;;;;;3.10;1.90;;;15.20;1.00;;;;;;5106431;27;20546;-72
2024/04/02 11:46:17;;;;;;;3.23;1.73;;;15.20;1.00;;;;;;5104993;27;21108;-71
2024/04/02 11:48:43;;;;;;;3.57;2.03;;;15.00;1.00;;;;;;5105966;27;20990;-72
2024/04/02 11:51:10;;;;;;;4.67;1.80;;;15.00;1.00;;;;;;5104357;27;20530;-71
2024/04/02 11:53:36;;;;;;;3.33;1.90;;;15.10;1.00;;;;;;5105639;27;20552;-73
2024/04/02 11:56:03;;;;;;;6.30;2.40;;;15.20;1.00;;;;;;5083111;27;20576;-71
2024/04/02 12:01:16;;;;;;;4.60;1.80;;;18.30;1.00;;;;;;5090004;27;20458;-71
2024/04/02 12:03:43;;;;;;;3.30;1.67;;;19.20;1.00;;;;;;5094025;27;20566;-70
2024/04/02 12:06:10;;;;;;;2.40;1.97;;;18.50;1.00;;;;;;5080736;27;20461;-71
2024/04/02 12:08:36;;;;;;;3.00;1.53;;;17.40;1.00;;;;;;5091188;27;20602;-70
2024/04/02 12:11:03;;;;;;;3.80;2.23;;;16.60;1.00;;;;;;5094395;27;20459;-70
2024/04/02 12:13:29;;;;;;;4.37;2.13;;;16.20;1.00;;;;;;5083445;28;20475;-70
2024/04/02 12:15:56;;;;;;;2.17;1.43;;;16.40;1.00;;;;;;5089712;27;20474;-71
2024/04/02 12:18:23;;;;;;;3.27;1.93;;;16.70;1.00;;;;;;5104453;27;20238;-70
2024/04/02 12:20:50;;;;;;;1.90;1.80;;;18.30;1.00;;;;;;5111959;27;20463;-72
2024/04/02 12:23:17;;;;;;;3.63;1.90;;;20.00;1.00;;;;;;5083957;27;21766;-72
2024/04/02 12:25:44;;;;;;;2.20;1.50;;;19.70;1.00;;;;;;5079056;28;20469;-71
2024/04/02 12:28:10;;;;;;;3.03;1.80;;;19.20;1.00;;;;;;5081638;27;20456;-72
2024/04/02 12:30:37;;;;;;;3.20;2.03;;;18.10;1.00;;;;;;5090683;27;20881;-72
2024/04/02 12:33:03;;;;;;;5.30;2.37;;;17.20;1.00;;;;;;5082816;27;20550;-71
2024/04/02 12:35:32;;;;;;;4.63;2.60;;;16.30;1.00;;;;;;5087608;27;20556;-71
2024/04/02 12:37:59;;;;;;;6.40;3.20;;;15.20;1.00;;;;;;5103427;27;20630;-70
2024/04/02 12:40:27;;;;;;;3.60;2.93;;;14.00;1.00;;;;;;5101591;27;20481;-72
2024/04/02 12:42:53;;;;;;;2.63;1.80;;;13.10;1.00;;;;;;5104970;27;20588;-74
2024/04/02 12:45:20;;;;;;;4.47;2.30;;;12.50;1.00;;;;;;5105308;27;20463;-74
2024/04/02 12:47:46;;;;;;;2.90;1.93;;;12.40;1.00;;;;;;5108229;27;20479;-74
2024/04/02 12:50:14;;;;;;;3.70;2.70;;;12.40;1.00;;;;;;5102716;27;20492;-73
2024/04/02 12:52:42;;;;;;;5.00;2.30;;;12.70;1.00;;;;;;5105888;27;20467;-72
2024/04/02 12:55:09;;;;;;;3.80;3.50;;;13.00;1.00;;;;;;5105622;27;20456;-73
2024/04/02 12:57:35;;;;;;;3.37;3.07;;;13.90;1.00;;;;;;5105442;27;21048;-73
2024/04/02 13:00:02;;;;;;;5.03;2.80;;;15.90;1.00;;;;;;5102129;27;20476;-74
2024/04/02 13:02:27;;;;;;;2.90;2.30;;;17.80;1.00;;;;;;5103523;27;20471;-74
2024/04/02 13:04:56;;;;;;;2.23;2.03;;;18.10;1.00;;;;;;5105888;27;20442;-73